Time;durP1;ratioP1;P1;durP2;ratioP2;P2;SDS_P1;SDS_P2;PMS_P1;PMS_P2;Temp;Humidity;BMP_temperature;BMP_pressure;BME280_temperature;BME280_humidity;BME280_pressure;Samples;Min_cycle;Max_cycle;Signal;HPM_P1;HPM_P2
2022/02/09 05:00:38;;;;;;;14.10;7.03;;;8.90;99.90;;;;;;5927571;23;20382;-66
2022/02/09 05:03:25;;;;;;;9.63;6.40;;;8.90;99.90;;;;;;4956929;29;20440;-65
2022/02/09 05:22:40;;;;;;;5.90;5.40;;;9.00;99.90;;;;;;4956260;29;20474;-66
2022/02/09 05:27:52;;;;;;;8.80;6.20;;;8.90;99.90;;;;;;4954872;29;20448;-66
2022/02/09 05:30:19;;;;;;;6.77;5.63;;;9.00;99.90;;;;;;4955729;29;20447;-66
2022/02/09 05:32:47;;;;;;;10.53;5.93;;;8.90;99.90;;;;;;4956219;29;20463;-66
2022/02/09 05:35:15;;;;;;;8.97;5.03;;;9.00;99.90;;;;;;4955723;29;20480;-65
2022/02/09 05:37:41;;;;;;;6.20;4.43;;;8.90;99.90;;;;;;4956023;29;20475;-65
2022/02/09 05:40:09;;;;;;;8.33;4.70;;;8.90;99.90;;;;;;4956010;29;20460;-66
2022/02/09 05:42:36;;;;;;;10.07;4.53;;;9.00;99.90;;;;;;4956211;29;20475;-66
2022/02/09 05:45:07;;;;;;;9.13;5.37;;;9.00;99.90;;;;;;4956596;29;20433;-66
2022/02/09 05:48:05;;;;;;;7.83;5.20;;;8.90;99.90;;;;;;4956614;29;20455;-65
2022/02/09 05:50:35;;;;;;;10.07;5.47;;;8.90;99.90;;;;;;4956233;28;20486;-66
2022/02/09 05:53:11;;;;;;;10.27;5.03;;;8.80;99.90;;;;;;4956212;29;20455;-66
2022/02/09 05:55:46;;;;;;;6.50;4.53;;;8.80;99.90;;;;;;4958640;28;20455;-66
2022/02/09 05:58:21;;;;;;;8.60;5.20;;;8.80;99.90;;;;;;4960331;29;20514;-65
2022/02/09 06:00:48;;;;;;;5.50;5.00;;;8.80;99.90;;;;;;4959444;29;20487;-66
2022/02/09 06:03:15;;;;;;;8.83;4.37;;;8.80;99.90;;;;;;4960650;29;20445;-67
2022/02/09 06:05:44;;;;;;;6.83;4.37;;;8.90;99.90;;;;;;4961852;29;20463;-66
2022/02/09 06:08:11;;;;;;;7.17;4.47;;;8.90;99.90;;;;;;4970797;29;20455;-66
2022/02/09 06:10:39;;;;;;;4.47;4.07;;;8.90;99.90;;;;;;4960811;29;20479;-67
2022/02/09 06:13:15;;;;;;;4.63;4.23;;;8.90;99.90;;;;;;4959124;29;20463;-67
2022/02/09 06:16:06;;;;;;;4.43;4.13;;;8.90;99.90;;;;;;4959461;29;20465;-67
2022/02/09 06:21:20;;;;;;;5.20;4.57;;;8.90;99.90;;;;;;4958941;29;20458;-66
2022/02/09 06:23:47;;;;;;;11.67;4.23;;;8.90;99.90;;;;;;4959171;29;20514;-67
2022/02/09 06:26:14;;;;;;;8.67;4.57;;;8.90;99.90;;;;;;4959010;29;20931;-66
2022/02/09 06:28:41;;;;;;;5.80;5.20;;;8.90;99.90;;;;;;4961886;29;20459;-65
2022/02/09 06:31:08;;;;;;;5.10;4.50;;;8.80;99.90;;;;;;4958832;28;20996;-67
2022/02/09 06:33:35;;;;;;;4.57;4.10;;;8.80;99.90;;;;;;4958948;29;20479;-67
2022/02/09 06:36:04;;;;;;;7.73;4.50;;;8.70;99.90;;;;;;4958960;28;20478;-67
2022/02/09 06:38:38;;;;;;;5.67;3.67;;;8.70;99.90;;;;;;4959074;29;20547;-67
2022/02/09 06:41:06;;;;;;;5.30;4.20;;;8.80;99.90;;;;;;4959159;29;21054;-67
2022/02/09 06:43:33;;;;;;;7.10;4.00;;;8.80;99.90;;;;;;4958714;29;20932;-67
2022/02/09 06:46:01;;;;;;;8.73;4.37;;;8.80;99.90;;;;;;4958518;29;20498;-67
2022/02/09 06:48:28;;;;;;;6.50;4.80;;;8.80;99.90;;;;;;4958501;29;20456;-67
2022/02/09 06:51:01;;;;;;;6.30;4.57;;;8.90;99.90;;;;;;4958159;29;20474;-66
2022/02/09 06:53:33;;;;;;;4.67;3.73;;;8.80;99.90;;;;;;4958267;29;20897;-67
2022/02/09 06:56:02;;;;;;;7.17;3.63;;;8.90;99.90;;;;;;4958921;29;20471;-67
2022/02/09 06:58:45;;;;;;;5.70;3.80;;;8.90;99.90;;;;;;4958800;29;20791;-66
2022/02/09 07:01:12;;;;;;;7.07;3.27;;;8.90;99.90;;;;;;4958520;28;20487;-67
2022/02/09 07:03:39;;;;;;;7.43;4.70;;;9.00;99.90;;;;;;4958353;29;20452;-67
2022/02/09 07:06:06;;;;;;;4.93;3.10;;;8.90;99.90;;;;;;4957515;28;20467;-66
2022/02/09 07:08:34;;;;;;;4.87;3.30;;;8.90;99.90;;;;;;4957578;29;20467;-66
2022/02/09 07:11:02;;;;;;;3.77;3.00;;;8.90;99.90;;;;;;4958147;28;20507;-67
2022/02/09 07:13:28;;;;;;;6.80;3.77;;;8.90;99.90;;;;;;4957973;29;20463;-67
2022/02/09 07:16:03;;;;;;;8.03;3.67;;;8.90;99.90;;;;;;4957738;29;20964;-67
2022/02/09 07:18:29;;;;;;;4.10;3.60;;;9.00;99.90;;;;;;4957818;29;20483;-67
2022/02/09 07:21:00;;;;;;;7.23;3.43;;;9.00;99.90;;;;;;4961179;29;21045;-66
2022/02/09 07:23:32;;;;;;;4.87;3.27;;;9.00;99.90;;;;;;4968657;29;20450;-67
2022/02/09 07:26:06;;;;;;;3.13;2.80;;;9.10;99.90;;;;;;4970528;29;20440;-66
2022/02/09 07:28:36;;;;;;;4.13;3.37;;;9.10;99.90;;;;;;4972157;29;20447;-66
2022/02/09 07:31:06;;;;;;;3.77;3.50;;;9.20;99.90;;;;;;4960930;29;20484;-66
2022/02/09 07:33:33;;;;;;;3.77;3.37;;;9.20;99.90;;;;;;4958012;29;20440;-67
2022/02/09 07:36:00;;;;;;;5.53;3.33;;;9.30;99.90;;;;;;4958235;29;20463;-67
2022/02/09 07:38:27;;;;;;;4.67;3.23;;;9.40;99.90;;;;;;4958012;29;20459;-66
2022/02/09 07:40:57;;;;;;;3.80;3.37;;;9.70;99.90;;;;;;4957773;29;20472;-67
2022/02/09 07:43:34;;;;;;;3.67;2.60;;;10.10;99.90;;;;;;4957708;29;20444;-67
2022/02/09 07:46:20;;;;;;;3.33;2.70;;;10.70;99.90;;;;;;4957648;29;20475;-67
2022/02/09 07:49:00;;;;;;;5.00;2.83;;;11.70;99.90;;;;;;4957523;29;20445;-67
2022/02/09 07:54:25;;;;;;;5.30;2.27;;;14.10;99.90;;;;;;4917100;29;20473;-67
2022/02/09 07:56:52;;;;;;;3.60;2.50;;;15.30;99.90;;;;;;4948276;29;20875;-68
2022/02/09 07:59:20;;;;;;;2.70;2.33;;;16.40;99.90;;;;;;4957548;29;20471;-68
2022/02/09 08:01:48;;;;;;;3.43;2.40;;;17.30;99.90;;;;;;4956675;29;20828;-68
2022/02/09 08:04:15;;;;;;;3.40;2.30;;;18.30;99.90;;;;;;4957664;29;20459;-68
2022/02/09 08:06:42;;;;;;;3.93;2.80;;;19.30;98.50;;;;;;4957586;29;20519;-68
2022/02/09 08:09:16;;;;;;;3.20;2.67;;;19.90;95.60;;;;;;4957626;29;20460;-69
2022/02/09 08:11:51;;;;;;;3.53;2.60;;;20.90;93.70;;;;;;4962311;29;20544;-68
2022/02/09 08:28:44;;;;;;;6.40;4.33;;;22.60;73.70;;;;;;4957742;29;20431;-68
2022/02/09 08:33:57;;;;;;;6.20;3.93;;;22.40;71.60;;;;;;4957024;29;20799;-67
2022/02/09 08:36:24;;;;;;;5.33;4.40;;;22.60;70.00;;;;;;4956932;29;20556;-68
2022/02/09 08:38:51;;;;;;;8.20;4.27;;;22.50;68.80;;;;;;4964767;29;20510;-68
2022/02/09 08:41:18;;;;;;;11.20;4.83;;;22.80;68.00;;;;;;4960946;29;20567;-67
2022/02/09 08:43:45;;;;;;;6.73;4.47;;;22.60;67.20;;;;;;4973170;29;20460;-69
2022/02/09 08:46:12;;;;;;;9.70;4.43;;;22.70;67.00;;;;;;4963311;29;20487;-68
2022/02/09 08:48:38;;;;;;;8.10;4.30;;;22.20;65.10;;;;;;4956638;29;20467;-68
2022/02/09 08:51:06;;;;;;;8.90;5.33;;;22.00;66.10;;;;;;4956689;29;20468;-68
2022/02/09 08:53:35;;;;;;;6.80;4.50;;;22.40;66.90;;;;;;4956582;29;20460;-68
2022/02/09 08:56:03;;;;;;;8.10;4.93;;;22.70;65.90;;;;;;4956469;29;20475;-68
2022/02/09 08:58:30;;;;;;;10.70;5.30;;;23.10;65.00;;;;;;4956497;28;20954;-68
2022/02/09 09:01:07;;;;;;;6.20;3.80;;;22.70;63.40;;;;;;4956970;28;20829;-67
2022/02/09 09:03:41;;;;;;;7.40;4.57;;;23.40;64.60;;;;;;4956631;29;20452;-68
2022/02/09 09:06:16;;;;;;;7.87;4.30;;;23.60;63.40;;;;;;4957429;29;20440;-68
2022/02/09 09:08:49;;;;;;;8.80;5.03;;;23.60;63.10;;;;;;4957172;29;20463;-67
2022/02/09 09:58:19;;;;;;;6.07;3.53;;;22.70;63.00;;;;;;4956665;29;20499;-67
2022/02/09 10:03:37;;;;;;;6.70;3.57;;;21.40;61.80;;;;;;4956672;29;20458;-68
2022/02/09 10:31:49;;;;;;;3.30;3.00;;;25.80;56.30;;;;;;4958653;29;20539;-68
2022/02/09 10:34:20;;;;;;;3.57;3.07;;;26.00;54.60;;;;;;4957020;29;20444;-67
2022/02/09 10:36:51;;;;;;;6.17;3.03;;;25.80;55.30;;;;;;4957008;29;20440;-68
2022/02/09 10:39:22;;;;;;;3.40;2.77;;;26.40;54.10;;;;;;4956931;29;20468;-68
2022/02/09 10:41:56;;;;;;;4.50;2.60;;;26.60;53.40;;;;;;4959318;28;20503;-68
2022/02/09 10:44:26;;;;;;;3.73;2.27;;;26.00;54.10;;;;;;4960224;29;20444;-68
2022/02/09 10:46:55;;;;;;;6.83;3.37;;;26.50;53.50;;;;;;4960290;29;20490;-69
2022/02/09 10:49:28;;;;;;;6.07;3.10;;;26.60;54.00;;;;;;4960694;29;20459;-68
2022/02/09 10:52:06;;;;;;;4.63;3.30;;;25.20;53.90;;;;;;4963095;29;20479;-67
2022/02/09 10:54:35;;;;;;;3.80;3.00;;;24.10;55.00;;;;;;4961221;29;20963;-68
2022/02/09 10:57:04;;;;;;;5.80;3.10;;;23.30;56.30;;;;;;4961340;29;20469;-68
2022/02/09 10:59:34;;;;;;;5.50;3.10;;;22.00;57.80;;;;;;4961023;29;20801;-68
2022/02/09 11:02:02;;;;;;;3.80;2.50;;;22.00;58.30;;;;;;4960728;29;20487;-68
2022/02/09 11:04:31;;;;;;;5.00;2.90;;;22.00;58.80;;;;;;4959777;29;20470;-67
2022/02/09 11:06:58;;;;;;;3.03;2.70;;;22.20;58.80;;;;;;4960163;29;20467;-68
2022/02/09 11:09:25;;;;;;;9.40;3.00;;;21.30;59.80;;;;;;4960164;29;20452;-67
2022/02/09 11:11:52;;;;;;;3.47;2.27;;;20.70;61.80;;;;;;4960344;29;20566;-67
2022/02/09 11:14:21;;;;;;;4.60;3.17;;;20.80;62.50;;;;;;4959588;29;20483;-68
2022/02/09 11:16:52;;;;;;;10.13;3.40;;;20.30;63.60;;;;;;4963056;29;20456;-68
2022/02/09 11:19:20;;;;;;;4.83;3.07;;;20.00;64.70;;;;;;4968072;29;20436;-67
2022/02/09 11:21:50;;;;;;;2.80;2.37;;;19.30;66.50;;;;;;4959878;29;20508;-67
2022/02/09 11:24:20;;;;;;;3.43;2.60;;;19.20;67.40;;;;;;4959889;29;20444;-67
2022/02/09 11:26:57;;;;;;;4.40;2.60;;;18.90;69.30;;;;;;4961081;29;20468;-67
2022/02/09 11:29:49;;;;;;;2.93;2.70;;;18.70;68.70;;;;;;4961451;29;20451;-68
2022/02/09 11:32:31;;;;;;;6.03;2.60;;;18.00;70.00;;;;;;4959732;29;20483;-68
2022/02/09 11:35:35;;;;;;;3.33;2.47;;;17.30;72.20;;;;;;4959870;29;20468;-68
2022/02/09 11:43:46;;;;;;;4.83;3.20;;;15.80;78.30;;;;;;4959391;29;20824;-68
2022/02/09 11:46:39;;;;;;;3.20;2.83;;;15.00;83.80;;;;;;4969521;29;20516;-68
2022/02/09 11:52:12;;;;;;;4.30;2.87;;;14.90;86.30;;;;;;4938706;28;20542;-68
2022/02/09 11:54:56;;;;;;;5.13;3.10;;;15.20;86.50;;;;;;4959552;29;20467;-68
2022/02/09 12:00:59;;;;;;;6.53;3.20;;;14.80;90.20;;;;;;4960013;28;20469;-67
2022/02/09 12:09:32;;;;;;;5.23;2.77;;;15.50;89.60;;;;;;4959906;29;20424;-67
2022/02/09 12:12:03;;;;;;;6.43;3.20;;;15.50;88.40;;;;;;4958843;29;20562;-67
2022/02/09 12:14:56;;;;;;;6.83;3.70;;;15.70;89.80;;;;;;4959946;29;20444;-67
2022/02/09 12:17:37;;;;;;;4.33;2.73;;;15.60;89.50;;;;;;4959979;29;20463;-67
2022/02/09 12:20:17;;;;;;;7.63;3.17;;;15.80;88.60;;;;;;4959628;29;20499;-67
2022/02/09 12:22:50;;;;;;;5.17;3.17;;;16.00;88.20;;;;;;4959275;29;20912;-67
2022/02/09 12:25:17;;;;;;;6.00;2.90;;;16.00;88.20;;;;;;4959624;29;20436;-67
2022/02/09 12:27:49;;;;;;;4.27;3.43;;;15.90;87.70;;;;;;4958940;28;20466;-67
2022/02/09 12:30:21;;;;;;;5.73;4.30;;;15.90;90.00;;;;;;4959249;29;20440;-67
2022/02/09 12:32:48;;;;;;;6.97;3.00;;;15.90;87.70;;;;;;4958799;29;20441;-68
2022/02/09 12:35:16;;;;;;;4.07;3.50;;;15.90;89.10;;;;;;4959416;29;20488;-67
2022/02/09 12:37:47;;;;;;;4.60;3.00;;;16.00;87.30;;;;;;4959638;29;20958;-67
2022/02/09 12:40:17;;;;;;;6.13;3.33;;;16.00;88.00;;;;;;4959116;29;20432;-67
2022/02/09 12:42:46;;;;;;;4.00;3.00;;;15.40;88.10;;;;;;4960592;29;20536;-68
2022/02/09 12:45:16;;;;;;;8.23;3.50;;;15.80;91.80;;;;;;4959707;28;20814;-67
2022/02/09 12:47:45;;;;;;;6.83;2.90;;;15.80;90.30;;;;;;4961368;29;20456;-66
2022/02/09 12:50:16;;;;;;;4.30;2.87;;;16.10;88.20;;;;;;4965059;29;20940;-67
2022/02/09 12:52:44;;;;;;;3.10;2.80;;;16.30;90.00;;;;;;4961453;29;20536;-67
2022/02/09 12:55:16;;;;;;;5.83;3.20;;;16.40;86.80;;;;;;4958554;29;20487;-67
2022/02/09 12:57:47;;;;;;;5.83;3.90;;;16.30;89.00;;;;;;4960429;29;20448;-67
2022/02/09 13:00:26;;;;;;;7.17;3.73;;;16.30;91.80;;;;;;4959843;28;20451;-68
2022/02/09 13:02:55;;;;;;;7.20;3.47;;;16.40;87.50;;;;;;4960155;28;20432;-66
2022/02/09 13:05:22;;;;;;;6.27;2.97;;;16.20;89.70;;;;;;4960678;28;20805;-67
2022/02/09 13:07:54;;;;;;;5.00;2.87;;;16.40;89.80;;;;;;4963326;29;20467;-66
2022/02/09 13:10:28;;;;;;;7.17;2.90;;;16.50;89.00;;;;;;4966349;28;20488;-67
2022/02/09 13:12:57;;;;;;;3.53;3.00;;;16.50;87.50;;;;;;4972221;29;20522;-68
2022/02/09 13:15:30;;;;;;;3.47;3.17;;;16.70;90.10;;;;;;4974111;29;20505;-67
2022/02/09 13:51:39;;;;;;;3.27;2.97;;;16.20;88.30;;;;;;4918071;29;20521;-68
2022/02/09 14:03:05;;;;;;;3.87;3.27;;;16.40;90.00;;;;;;4957320;29;20452;-66
2022/02/09 14:14:07;;;;;;;5.20;2.63;;;16.40;88.60;;;;;;4949742;29;20493;-68
2022/02/09 14:52:46;;;;;;;4.77;2.67;;;15.80;91.00;;;;;;4959675;29;20466;-65
2022/02/09 14:55:33;;;;;;;7.13;3.00;;;15.90;90.90;;;;;;4959766;29;20439;-66
2022/02/09 14:58:09;;;;;;;2.93;2.27;;;16.00;92.00;;;;;;4959541;29;20495;-66
2022/02/09 15:00:47;;;;;;;5.23;2.87;;;15.90;90.60;;;;;;4959193;29;20467;-69
2022/02/09 15:03:26;;;;;;;10.60;3.33;;;15.80;90.80;;;;;;4959375;29;20446;-66
2022/02/09 15:06:22;;;;;;;5.63;2.60;;;15.70;90.70;;;;;;4960970;29;20512;-67
2022/02/09 15:08:53;;;;;;;9.60;2.93;;;15.40;91.20;;;;;;4959906;29;20444;-67
2022/02/09 15:11:29;;;;;;;4.63;2.80;;;15.30;91.60;;;;;;4959478;29;20472;-67
2022/02/09 15:14:08;;;;;;;3.80;2.77;;;15.30;91.70;;;;;;4959336;29;20463;-67
2022/02/09 15:16:43;;;;;;;5.17;2.90;;;15.30;91.30;;;;;;4959410;29;20967;-67
2022/02/09 15:19:30;;;;;;;3.37;2.60;;;15.30;91.60;;;;;;4959220;29;20439;-66
2022/02/09 15:22:04;;;;;;;3.00;2.30;;;15.20;91.60;;;;;;4958627;28;20483;-68
2022/02/09 15:24:38;;;;;;;4.57;2.47;;;15.20;91.50;;;;;;4959751;29;20443;-67
2022/02/09 15:27:06;;;;;;;4.33;2.77;;;14.90;91.90;;;;;;4958584;28;20435;-66
2022/02/09 15:29:37;;;;;;;5.27;2.90;;;14.90;91.90;;;;;;4959251;28;20456;-66
2022/02/09 15:32:08;;;;;;;6.50;3.30;;;14.70;92.50;;;;;;4959146;29;20844;-68
2022/02/09 15:34:40;;;;;;;7.20;2.77;;;14.70;92.90;;;;;;4959022;29;20447;-66
2022/02/09 15:37:14;;;;;;;3.03;2.10;;;14.70;93.90;;;;;;4959118;29;20474;-66
2022/02/09 15:39:45;;;;;;;3.00;2.20;;;14.60;93.20;;;;;;4959136;29;20471;-67
2022/02/09 15:42:31;;;;;;;4.63;2.67;;;14.50;93.40;;;;;;4958791;29;20472;-64
2022/02/09 15:56:23;;;;;;;3.57;2.40;;;14.10;95.80;;;;;;4963626;29;20462;-65
2022/02/09 15:59:20;;;;;;;5.13;2.57;;;14.00;96.00;;;;;;4959746;29;20535;-66
2022/02/09 16:10:36;;;;;;;4.13;2.87;;;13.70;96.90;;;;;;4958869;29;20570;-65
2022/02/09 16:19:30;;;;;;;5.60;3.53;;;13.50;98.80;;;;;;4958739;29;20420;-65
2022/02/09 16:21:55;;;;;;;4.30;2.60;;;13.40;99.50;;;;;;4958371;29;20563;-66
2022/02/09 16:24:30;;;;;;;6.17;3.00;;;13.40;99.90;;;;;;4958969;29;20443;-65
2022/02/09 16:36:22;;;;;;;3.50;2.60;;;13.00;99.90;;;;;;4958615;29;20419;-65
2022/02/09 16:38:38;;;;;;;7.03;2.97;;;12.90;99.90;;;;;;4957519;28;20539;-65
2022/02/09 16:46:41;;;;;;;8.20;3.40;;;12.60;99.90;;;;;;4947687;29;20448;-66
2022/02/09 16:49:11;;;;;;;10.33;3.83;;;12.50;99.90;;;;;;4957759;28;20460;-66
2022/02/09 16:51:45;;;;;;;6.53;4.27;;;12.40;99.90;;;;;;4957063;29;20946;-65
2022/02/09 16:54:27;;;;;;;10.47;4.00;;;12.30;99.90;;;;;;4958853;29;20447;-66
2022/02/09 16:57:03;;;;;;;6.03;4.03;;;12.20;99.90;;;;;;4957667;29;20555;-65
2022/02/09 17:19:01;;;;;;;6.93;4.87;;;11.30;99.90;;;;;;4957229;29;20780;-66
2022/02/09 17:21:29;;;;;;;12.67;4.90;;;11.20;99.90;;;;;;4957872;29;20472;-66
2022/02/09 17:24:01;;;;;;;6.97;6.27;;;11.10;99.90;;;;;;4957868;29;20959;-66
2022/02/09 17:26:28;;;;;;;5.67;5.13;;;11.10;99.90;;;;;;4959459;29;20432;-65
2022/02/09 17:29:04;;;;;;;5.20;4.40;;;11.00;99.90;;;;;;4959452;29;20462;-65
2022/02/09 17:31:41;;;;;;;9.27;5.03;;;11.00;99.90;;;;;;4957125;29;20482;-65
2022/02/09 17:37:09;;;;;;;6.40;4.30;;;10.90;99.90;;;;;;4948007;29;20570;-66
2022/02/09 17:53:29;;;;;;;5.33;4.80;;;10.50;99.90;;;;;;4960780;29;20484;-66
2022/02/09 17:56:00;;;;;;;7.27;4.50;;;10.40;99.90;;;;;;4960874;29;20446;-65
2022/02/09 17:58:30;;;;;;;6.63;4.40;;;10.40;99.90;;;;;;4961765;29;20514;-66
2022/02/09 18:00:58;;;;;;;9.30;4.32;;;10.40;99.90;;;;;;4959817;29;20463;-65
2022/02/09 18:03:27;;;;;;;7.13;4.80;;;10.50;99.90;;;;;;4960496;28;20196;-65
2022/02/09 18:05:56;;;;;;;8.30;5.57;;;10.50;99.90;;;;;;4960631;29;20459;-66
2022/02/09 18:08:29;;;;;;;7.37;5.00;;;10.50;99.90;;;;;;4960800;29;20455;-66
2022/02/09 18:11:15;;;;;;;10.30;6.00;;;10.50;99.90;;;;;;4960179;29;20563;-65
2022/02/09 18:14:15;;;;;;;11.47;7.70;;;10.40;99.90;;;;;;4960537;29;20439;-67
2022/02/09 18:28:14;;;;;;;15.30;8.83;;;10.10;99.90;;;;;;4960658;29;20420;-67
2022/02/09 18:30:45;;;;;;;13.63;8.87;;;10.10;99.90;;;;;;4963255;28;20631;-65
2022/02/09 18:33:37;;;;;;;11.60;8.23;;;10.00;99.90;;;;;;4962197;29;20432;-67
2022/02/09 18:44:24;;;;;;;9.70;5.90;;;9.80;99.90;;;;;;4960992;29;20470;-65
2022/02/09 18:47:07;;;;;;;9.40;6.77;;;9.80;99.90;;;;;;4960026;29;20444;-64
2022/02/09 18:58:53;;;;;;;8.33;5.50;;;9.70;99.90;;;;;;4959181;29;20455;-66
2022/02/09 19:01:15;;;;;;;9.63;5.50;;;9.60;99.90;;;;;;4967876;28;20571;-65
2022/02/09 19:03:52;;;;;;;6.37;5.70;;;9.60;99.90;;;;;;4966651;29;20444;-65
2022/02/09 19:06:25;;;;;;;8.63;4.97;;;9.50;99.90;;;;;;4975780;29;20447;-65
2022/02/09 19:14:27;;;;;;;8.80;5.90;;;9.50;99.90;;;;;;4977263;29;20459;-65
2022/02/09 19:17:03;;;;;;;5.23;4.73;;;9.50;99.90;;;;;;4976698;29;20459;-67
2022/02/09 19:19:54;;;;;;;5.47;3.83;;;9.40;99.90;;;;;;4976121;29;20471;-65
2022/02/09 19:30:52;;;;;;;12.40;7.67;;;9.20;99.90;;;;;;4954362;29;20488;-64
2022/02/09 19:46:52;;;;;;;10.90;7.47;;;9.10;99.90;;;;;;4958605;29;20859;-66
2022/02/09 19:49:33;;;;;;;10.37;7.80;;;9.00;99.90;;;;;;4958477;29;20927;-65
2022/02/09 19:52:11;;;;;;;7.30;6.50;;;9.00;99.90;;;;;;4958795;29;20476;-65
2022/02/09 19:54:44;;;;;;;9.43;6.50;;;8.90;99.90;;;;;;4958286;29;20487;-65
2022/02/09 19:57:13;;;;;;;8.50;7.13;;;8.90;99.90;;;;;;4958580;29;20671;-66
2022/02/09 19:59:41;;;;;;;7.13;5.83;;;8.90;99.90;;;;;;4958645;29;20462;-65
2022/02/09 20:02:09;;;;;;;9.07;8.13;;;8.90;99.90;;;;;;4958053;28;20582;-65
2022/02/09 20:04:38;;;;;;;7.70;6.70;;;8.80;99.90;;;;;;4958195;29;20459;-64
2022/02/09 20:07:06;;;;;;;8.93;7.30;;;8.80;99.90;;;;;;4959330;29;20444;-65
2022/02/09 20:09:33;;;;;;;10.93;6.50;;;8.70;99.90;;;;;;4962245;29;20597;-65
2022/02/09 20:12:00;;;;;;;7.73;6.63;;;8.70;99.90;;;;;;4958080;29;20490;-65
2022/02/09 20:14:29;;;;;;;10.00;7.40;;;8.80;99.90;;;;;;4957072;28;20467;-65
2022/02/09 20:16:56;;;;;;;9.80;6.20;;;8.80;99.90;;;;;;4958882;29;20491;-66
2022/02/09 20:19:22;;;;;;;7.07;6.40;;;8.80;99.90;;;;;;4958574;29;20464;-66
2022/02/09 20:21:49;;;;;;;10.47;7.67;;;8.80;99.90;;;;;;4958376;29;20480;-66
2022/02/09 20:24:17;;;;;;;10.73;7.40;;;8.70;99.90;;;;;;4957782;29;20543;-65
2022/02/09 20:26:45;;;;;;;9.57;6.40;;;8.60;99.90;;;;;;4958027;29;20441;-65
2022/02/09 20:29:16;;;;;;;6.70;6.00;;;8.60;99.90;;;;;;4959301;29;20467;-64
2022/02/09 20:31:50;;;;;;;9.60;6.77;;;8.60;99.90;;;;;;4960047;29;20475;-66
2022/02/09 20:34:24;;;;;;;11.50;7.90;;;8.50;99.90;;;;;;4964046;29;20476;-64
2022/02/09 20:36:51;;;;;;;8.73;6.43;;;8.40;99.90;;;;;;4959560;29;20554;-66
2022/02/09 20:39:23;;;;;;;14.03;7.27;;;8.30;99.90;;;;;;4958649;28;20466;-66
2022/02/09 20:41:51;;;;;;;8.90;7.03;;;8.30;99.90;;;;;;4960737;29;20908;-66
2022/02/09 20:44:26;;;;;;;8.33;6.80;;;8.30;99.90;;;;;;4961174;29;20467;-66
2022/02/09 20:46:55;;;;;;;12.77;7.20;;;8.20;99.90;;;;;;4958861;29;20440;-66
2022/02/09 20:49:22;;;;;;;9.93;6.50;;;8.20;99.90;;;;;;4958136;29;20443;-65
2022/02/09 20:51:49;;;;;;;14.60;7.60;;;8.20;99.90;;;;;;4959608;29;20475;-65
2022/02/09 20:54:16;;;;;;;9.83;6.93;;;8.20;99.90;;;;;;4959322;28;20806;-66
2022/02/09 20:56:42;;;;;;;12.50;7.00;;;8.20;99.90;;;;;;4959686;29;20490;-67
2022/02/09 20:59:12;;;;;;;13.23;7.00;;;8.20;99.90;;;;;;4956901;29;20463;-65
2022/02/09 21:01:46;;;;;;;11.97;7.03;;;8.20;99.90;;;;;;4956639;29;20502;-66
2022/02/09 21:04:16;;;;;;;10.00;6.80;;;8.10;99.90;;;;;;4957210;29;20444;-65
2022/02/09 21:07:00;;;;;;;12.27;7.80;;;8.10;99.90;;;;;;4957479;29;20450;-66
2022/02/09 21:09:35;;;;;;;12.00;8.10;;;8.10;99.90;;;;;;4958371;29;20910;-65
2022/02/09 21:12:12;;;;;;;10.50;8.40;;;8.00;99.90;;;;;;4958504;29;20966;-66
2022/02/09 21:18:03;;;;;;;18.83;8.67;;;8.00;99.90;;;;;;4917308;29;20462;-65
2022/02/09 21:23:34;;;;;;;16.40;8.70;;;7.90;99.90;;;;;;4944461;29;20947;-66
2022/02/09 21:53:57;;;;;;;14.20;10.03;;;7.40;99.90;;;;;;4956549;29;20438;-65
2022/02/09 21:56:30;;;;;;;16.63;9.73;;;7.30;99.90;;;;;;4956930;29;20440;-65
2022/02/09 21:59:16;;;;;;;13.93;9.27;;;7.30;99.90;;;;;;4956494;29;20975;-65
2022/02/09 22:06:08;;;;;;;24.50;9.33;;;7.20;99.90;;;;;;4956757;29;21069;-64
2022/02/09 22:21:30;;;;;;;14.57;10.00;;;7.20;99.90;;;;;;4955883;29;20977;-64
2022/02/09 22:46:31;;;;;;;13.93;10.23;;;6.90;99.90;;;;;;5100010;28;20448;-65
2022/02/09 22:49:02;;;;;;;12.87;10.20;;;6.90;99.90;;;;;;5100241;28;20469;-65
2022/02/09 22:54:30;;;;;;;21.00;10.60;;;6.90;99.90;;;;;;5101655;28;20421;-64
2022/02/09 22:56:57;;;;;;;14.27;9.87;;;6.80;99.90;;;;;;5092809;28;20445;-64
2022/02/09 22:59:30;;;;;;;16.73;10.50;;;6.80;99.90;;;;;;5098697;28;20442;-65
